createdAt,value
2022-11-20T00:00:47.213Z,76.14
2022-11-20T00:03:51.524Z,76.20
2022-11-20T00:06:54.631Z,76.90
2022-11-20T00:09:58.106Z,76.38
2022-11-20T00:13:01.230Z,76.66
2022-11-20T00:16:05.986Z,77.36
2022-11-20T00:19:08.526Z,75.95
2022-11-20T00:22:11.635Z,75.95
2022-11-20T00:25:14.794Z,75.84
2022-11-20T00:28:17.266Z,75.89
2022-11-20T00:31:20.435Z,75.31
2022-11-20T00:34:23.675Z,75.51
2022-11-20T00:37:27.226Z,76.26
2022-11-20T00:40:29.757Z,76.11
2022-11-20T00:43:33.319Z,74.54
2022-11-20T00:46:36.762Z,75.25
2022-11-20T00:49:40.227Z,75.22
2022-11-20T00:52:42.732Z,76.09
2022-11-20T00:56:04.269Z,75.87
2022-11-20T00:59:09.787Z,75.74
2022-11-20T01:02:13.157Z,77.07
2022-11-20T01:05:16.754Z,77.66
2022-11-20T01:08:19.202Z,78.38
2022-11-20T01:11:33.895Z,77.98
2022-11-20T01:14:37.333Z,78.41
2022-11-20T01:17:39.917Z,78.51
2022-11-20T01:20:43.207Z,78.92
2022-11-20T01:23:46.790Z,79.07
2022-11-20T01:26:51.578Z,78.75
2022-11-20T01:29:59.781Z,79.33
2022-11-20T01:33:04.258Z,79.33
2022-11-20T01:36:08.099Z,78.77
2022-11-20T01:39:25.725Z,79.54
2022-11-20T01:42:47.100Z,79.24
2022-11-20T01:46:16.464Z,78.87
2022-11-20T01:49:25.795Z,79.44
2022-11-20T01:52:46.277Z,79.62
2022-11-20T01:55:54.475Z,79.76
2022-11-20T01:59:02.040Z,79.54
2022-11-20T02:02:05.370Z,78.82
2022-11-20T02:05:19.389Z,79.38
2022-11-20T02:08:24.295Z,79.01
2022-11-20T02:11:26.912Z,78.61
2022-11-20T02:14:30.627Z,78.94
2022-11-20T02:17:33.083Z,79.34
2022-11-20T02:20:35.907Z,78.89
2022-11-20T02:23:45.052Z,78.26
2022-11-20T02:26:53.845Z,78.14
2022-11-20T02:30:03.644Z,78.22
2022-11-20T02:33:06.134Z,78.07
2022-11-20T02:36:15.323Z,77.85
2022-11-20T02:39:18.220Z,78.49
2022-11-20T02:42:21.830Z,78.35
2022-11-20T02:45:25.805Z,78.49
2022-11-20T02:48:32.700Z,78.25
2022-11-20T02:51:36.360Z,78.97
2022-11-20T02:54:38.890Z,78.41
2022-11-20T02:57:42.362Z,77.94
2022-11-20T03:00:45.869Z,78.77
2022-11-20T03:03:49.679Z,78.38
2022-11-20T03:06:52.873Z,78.09
2022-11-20T03:09:55.523Z,78.13
2022-11-20T03:12:58.053Z,78.75
2022-11-20T03:16:07.266Z,77.32
2022-11-20T03:19:09.908Z,77.86
2022-11-20T03:22:13.387Z,77.29
2022-11-20T03:25:17.048Z,76.59
2022-11-20T03:28:19.602Z,77.08
2022-11-20T03:31:28.785Z,77.01
2022-11-20T03:34:31.874Z,77.06
2022-11-20T03:37:34.960Z,76.93
2022-11-20T03:40:38.463Z,76.03
2022-11-20T03:43:42.035Z,76.06
2022-11-20T03:46:45.329Z,75.64
2022-11-20T03:49:48.457Z,76.10
2022-11-20T03:52:50.979Z,76.07
2022-11-20T03:55:56.538Z,76.89
2022-11-20T03:58:59.940Z,76.29
2022-11-20T04:02:02.495Z,76.79
2022-11-20T04:05:06.369Z,76.46
2022-11-20T04:08:09.452Z,77.25
2022-11-20T04:11:19.418Z,77.75
2022-11-20T04:14:21.959Z,78.24
2022-11-20T04:17:24.495Z,78.67
2022-11-20T04:20:28.006Z,78.42
2022-11-20T04:23:31.601Z,78.86
2022-11-20T04:26:34.785Z,78.45
2022-11-20T04:29:37.338Z,78.47
2022-11-20T04:32:39.823Z,78.88
2022-11-20T04:35:43.815Z,77.87
2022-11-20T04:38:51.370Z,78.02
2022-11-20T04:42:15.907Z,78.63
2022-11-20T04:45:18.396Z,78.08
2022-11-20T04:48:21.960Z,78.09
2022-11-20T04:51:25.049Z,78.14
2022-11-20T04:54:31.809Z,78.33
2022-11-20T04:57:34.953Z,78.69
2022-11-20T05:00:38.077Z,78.08
2022-11-20T05:03:42.913Z,78.62
2022-11-20T05:06:46.609Z,78.48
2022-11-20T05:09:49.051Z,79.36
2022-11-20T05:12:51.565Z,79.41
2022-11-20T05:15:54.217Z,79.63
2022-11-20T05:18:57.152Z,79.16
2022-11-20T05:21:59.665Z,79.05
2022-11-20T05:25:02.115Z,78.75
2022-11-20T05:28:04.678Z,78.25
2022-11-20T05:31:25.011Z,78.32
2022-11-20T05:34:28.533Z,78.50
2022-11-20T05:37:31.117Z,78.58
2022-11-20T05:40:33.760Z,78.28
2022-11-20T05:43:37.517Z,78.22
2022-11-20T05:46:40.558Z,77.82
2022-11-20T05:49:43.207Z,77.59
2022-11-20T05:52:45.889Z,78.25
2022-11-20T05:55:57.530Z,78.00
2022-11-20T05:59:00.556Z,77.82
2022-11-20T06:02:04.103Z,77.77
2022-11-20T06:05:08.064Z,77.56
2022-11-20T06:08:10.616Z,77.63
2022-11-20T06:11:15.509Z,77.89
2022-11-20T06:14:18.011Z,77.32
2022-11-20T06:17:21.055Z,77.69
2022-11-20T06:20:25.617Z,78.09
2022-11-20T06:23:30.013Z,77.47
2022-11-20T06:26:33.128Z,77.51
2022-11-20T06:29:35.868Z,77.13
2022-11-20T06:32:38.508Z,77.79
2022-11-20T06:35:41.574Z,77.15
2022-11-20T06:38:45.382Z,77.30
2022-11-20T06:41:47.920Z,77.22
2022-11-20T06:44:50.387Z,76.82
2022-11-20T06:47:53.980Z,77.10
2022-11-20T06:50:58.173Z,76.54
2022-11-20T06:54:02.036Z,76.38
2022-11-20T06:57:04.721Z,76.39
2022-11-20T07:00:08.682Z,76.57
2022-11-20T07:03:16.269Z,75.53
2022-11-20T07:06:18.800Z,76.35
2022-11-20T07:09:22.388Z,76.25
2022-11-20T07:12:25.045Z,76.62
2022-11-20T07:15:28.034Z,76.26
2022-11-20T07:18:30.563Z,75.33
2022-11-20T07:21:33.056Z,75.65
2022-11-20T07:24:36.198Z,76.21
2022-11-20T07:27:38.724Z,76.76
2022-11-20T07:30:42.220Z,76.86
2022-11-20T07:33:44.698Z,77.20
2022-11-20T07:36:47.672Z,76.99
2022-11-20T07:39:51.177Z,77.25
2022-11-20T07:42:55.418Z,77.17
2022-11-20T07:45:59.925Z,76.75
2022-11-20T07:49:02.589Z,77.48
2022-11-20T07:52:05.550Z,77.27
2022-11-20T07:55:09.033Z,75.75
2022-11-20T07:58:11.547Z,77.08
2022-11-20T08:01:14.150Z,76.61
2022-11-20T08:04:17.324Z,76.26
2022-11-20T08:07:19.919Z,75.87
2022-11-20T08:10:22.525Z,75.49
2022-11-20T08:13:43.188Z,74.72
2022-11-20T08:16:47.771Z,74.16
2022-11-20T08:19:51.258Z,75.76
2022-11-20T08:22:58.871Z,75.28
2022-11-20T08:26:01.338Z,75.71
2022-11-20T08:29:05.612Z,75.56
2022-11-20T08:32:09.295Z,75.07
2022-11-20T08:35:11.851Z,75.40
2022-11-20T08:38:14.284Z,75.61
2022-11-20T08:41:29.519Z,75.79
2022-11-20T08:44:32.752Z,74.81
2022-11-20T08:47:35.264Z,73.52
2022-11-20T08:50:38.276Z,73.31
2022-11-20T08:53:41.377Z,73.63
2022-11-20T08:56:44.766Z,74.68
2022-11-20T09:03:09.889Z,75.41
2022-11-20T09:06:13.055Z,74.03
2022-11-20T09:09:16.342Z,75.34
2022-11-20T09:12:18.816Z,75.44
2022-11-20T09:15:21.726Z,75.94
2022-11-20T09:18:25.946Z,75.25
2022-11-20T09:21:28.502Z,75.49
2022-11-20T09:24:31.055Z,76.06
2022-11-20T09:27:34.278Z,76.19
2022-11-20T09:30:36.980Z,75.44
2022-11-20T09:33:40.377Z,75.36
2022-11-20T09:36:42.770Z,74.99
2022-11-20T09:39:45.233Z,74.91
2022-11-20T09:43:10.073Z,75.38
2022-11-20T09:46:22.189Z,73.97
2022-11-20T09:49:44.957Z,73.41
2022-11-20T09:53:16.078Z,73.73
2022-11-20T09:56:22.838Z,73.67
2022-11-20T09:59:37.469Z,73.82
2022-11-20T10:03:02.392Z,73.88
2022-11-20T10:06:09.615Z,73.73
2022-11-20T10:09:12.815Z,72.61
2022-11-20T10:12:34.703Z,72.02
2022-11-20T10:15:42.901Z,71.15
2022-11-20T10:18:54.464Z,71.66
2022-11-20T10:21:57.851Z,72.22
2022-11-20T10:25:03.244Z,71.95
2022-11-20T10:28:36.853Z,70.28
2022-11-20T10:31:43.244Z,70.19
2022-11-20T10:35:02.396Z,70.76
2022-11-20T10:38:13.920Z,70.84
2022-11-20T10:41:28.655Z,70.50
2022-11-20T10:44:56.749Z,70.10
2022-11-20T10:48:13.929Z,68.86
2022-11-20T10:51:31.531Z,68.91
2022-11-20T10:54:46.855Z,68.44
2022-11-20T10:58:10.224Z,68.20
2022-11-20T11:01:18.551Z,67.88
2022-11-20T11:04:45.410Z,67.90
2022-11-20T11:07:55.278Z,68.09
2022-11-20T11:11:02.682Z,66.71
2022-11-20T11:14:11.908Z,67.06
2022-11-20T11:17:29.767Z,67.91
2022-11-20T11:20:52.091Z,66.87
2022-11-20T11:24:26.854Z,66.94
2022-11-20T11:27:28.658Z,66.67
2022-11-20T11:30:44.207Z,66.29
2022-11-20T11:33:47.498Z,67.11
2022-11-20T11:36:58.214Z,67.00
2022-11-20T11:40:22.812Z,67.18
2022-11-20T11:43:49.747Z,67.01
2022-11-20T11:46:57.292Z,67.44
2022-11-20T11:50:09.308Z,67.95
2022-11-20T11:53:18.769Z,68.71
2022-11-20T11:56:22.414Z,69.06
2022-11-20T11:59:35.393Z,69.73
2022-11-20T12:02:49.425Z,70.70
2022-11-20T12:06:00.559Z,69.87
2022-11-20T12:09:07.299Z,70.77
2022-11-20T12:12:18.203Z,70.76
2022-11-20T12:15:29.876Z,70.56
2022-11-20T12:18:32.944Z,70.18
2022-11-20T12:21:53.655Z,70.23
2022-11-20T12:25:15.639Z,70.17
2022-11-20T12:28:26.989Z,70.31
2022-11-20T12:31:41.672Z,70.30
2022-11-20T12:34:54.128Z,69.24
2022-11-20T12:38:29.763Z,70.04
2022-11-20T12:42:05.909Z,69.85
2022-11-20T12:45:53.497Z,69.67
2022-11-20T12:49:06.383Z,70.35
2022-11-20T12:52:27.344Z,70.36
2022-11-20T12:55:34.713Z,70.92
2022-11-20T12:59:01.804Z,70.48
2022-11-20T13:02:23.426Z,70.34
2022-11-20T13:05:38.856Z,70.55
2022-11-20T13:08:48.545Z,70.66
2022-11-20T13:12:07.545Z,70.20
2022-11-20T13:15:31.106Z,70.09
2022-11-20T13:18:40.566Z,69.80
2022-11-20T13:21:47.374Z,69.35
2022-11-20T13:24:52.867Z,69.75
2022-11-20T13:27:58.455Z,70.18
2022-11-20T13:31:01.160Z,70.43
2022-11-20T13:34:07.382Z,70.32
2022-11-20T13:37:27.684Z,71.08
2022-11-20T13:40:30.272Z,71.61
2022-11-20T13:43:36.479Z,71.00
2022-11-20T13:46:45.602Z,71.07
2022-11-20T13:49:49.684Z,71.21
2022-11-20T13:53:24.482Z,71.13
2022-11-20T13:56:54.048Z,71.71
2022-11-20T14:00:24.304Z,70.95
2022-11-20T14:04:04.642Z,71.77
2022-11-20T14:06:55.477Z,71.75
2022-11-20T14:09:58.939Z,71.71
2022-11-20T14:13:12.017Z,72.26
2022-11-20T14:16:21.580Z,73.34
2022-11-20T14:19:31.437Z,73.08
2022-11-20T14:22:34.028Z,73.10
2022-11-20T14:25:36.695Z,73.02
2022-11-20T14:28:41.103Z,73.07
2022-11-20T14:31:47.880Z,72.72
2022-11-20T14:34:55.608Z,73.18
2022-11-20T14:37:59.441Z,73.70
2022-11-20T14:41:10.009Z,73.82
2022-11-20T14:44:13.300Z,73.83
2022-11-20T14:47:20.311Z,74.27
2022-11-20T14:50:29.796Z,74.30
2022-11-20T14:53:32.629Z,76.41
2022-11-20T14:56:35.818Z,74.28
2022-11-20T14:59:38.302Z,76.01
2022-11-20T15:02:46.094Z,74.92
2022-11-20T15:05:50.871Z,74.95
2022-11-20T15:08:56.824Z,75.25
2022-11-20T15:12:02.703Z,75.29
2022-11-20T15:15:07.133Z,75.35
2022-11-20T15:18:19.548Z,76.23
2022-11-20T15:21:22.658Z,76.36
2022-11-20T15:24:25.476Z,75.89
2022-11-20T15:27:29.133Z,76.08
2022-11-20T15:30:32.988Z,76.21
2022-11-20T15:33:35.540Z,76.14
2022-11-20T15:36:39.452Z,76.29
2022-11-20T15:39:42.795Z,76.73
2022-11-20T15:43:06.768Z,76.34
2022-11-20T15:46:14.016Z,76.55
2022-11-20T15:49:19.669Z,76.15
2022-11-20T15:52:23.126Z,76.29
2022-11-20T15:55:27.288Z,77.10
2022-11-20T15:58:30.399Z,77.01
2022-11-20T16:01:33.082Z,76.93
2022-11-20T16:04:35.680Z,77.03
2022-11-20T16:07:38.253Z,77.16
2022-11-20T16:10:41.565Z,77.73
2022-11-20T16:14:03.370Z,77.14
2022-11-20T16:17:05.995Z,77.55
2022-11-20T16:20:15.177Z,77.57
2022-11-20T16:23:19.166Z,78.04
2022-11-20T16:26:22.470Z,77.77
2022-11-20T16:29:25.000Z,78.91
2022-11-20T16:32:28.373Z,77.19
2022-11-20T16:35:32.082Z,77.60
2022-11-20T16:38:35.388Z,77.56
2022-11-20T16:41:38.318Z,78.36
2022-11-20T16:44:40.847Z,77.49
2022-11-20T16:47:43.391Z,77.61
2022-11-20T16:50:51.845Z,77.46
2022-11-20T16:53:55.988Z,77.62
2022-11-20T16:56:59.356Z,78.05
2022-11-20T17:00:04.015Z,77.95
2022-11-20T17:03:07.775Z,78.06
2022-11-20T17:06:17.523Z,77.90
2022-11-20T17:09:20.993Z,78.54
2022-11-20T17:12:23.467Z,79.18
2022-11-20T17:15:26.937Z,79.45
2022-11-20T17:18:29.937Z,79.71
2022-11-20T17:21:33.685Z,79.22
2022-11-20T17:24:37.059Z,79.41
2022-11-20T17:27:40.498Z,78.98
2022-11-20T17:30:43.890Z,80.11
2022-11-20T17:33:46.976Z,79.54
2022-11-20T17:36:50.454Z,81.18
2022-11-20T17:39:53.055Z,82.28
2022-11-20T17:42:56.493Z,79.47
2022-11-20T17:46:00.009Z,80.32
2022-11-20T17:49:03.903Z,79.98
2022-11-20T17:52:06.982Z,81.09
2022-11-20T17:55:10.474Z,80.89
2022-11-20T17:58:13.516Z,80.17
2022-11-20T18:01:17.704Z,80.54
2022-11-20T18:04:21.321Z,80.10
2022-11-20T18:07:25.112Z,80.36
2022-11-20T18:10:30.430Z,80.63
2022-11-20T18:13:52.923Z,80.91
2022-11-20T18:16:58.090Z,81.38
2022-11-20T18:20:27.235Z,81.53
2022-11-20T18:23:24.006Z,81.41
2022-11-20T18:26:27.562Z,81.87
2022-11-20T18:29:31.254Z,81.49
2022-11-20T18:32:37.015Z,81.69
2022-11-20T18:35:42.985Z,81.53
2022-11-20T18:38:49.419Z,81.34
2022-11-20T18:42:11.632Z,81.07
2022-11-20T18:45:14.122Z,81.69
2022-11-20T18:48:17.616Z,81.73
2022-11-20T18:51:21.098Z,82.05
2022-11-20T18:54:24.055Z,82.28
2022-11-20T18:57:29.384Z,81.53
2022-11-20T19:00:32.547Z,81.30
2022-11-20T19:03:35.155Z,82.88
2022-11-20T19:06:39.631Z,85.22
2022-11-20T19:09:44.974Z,83.88
2022-11-20T19:12:48.096Z,85.01
2022-11-20T19:15:50.653Z,84.26
2022-11-20T19:18:53.429Z,84.28
2022-11-20T19:21:58.970Z,83.75
2022-11-20T19:25:02.078Z,83.84
2022-11-20T19:28:05.690Z,83.48
2022-11-20T19:31:12.333Z,83.23
2022-11-20T19:34:15.253Z,83.94
2022-11-20T19:37:17.737Z,83.78
2022-11-20T19:40:21.147Z,85.00
2022-11-20T19:43:23.803Z,85.86
2022-11-20T19:46:27.403Z,86.14
2022-11-20T19:49:30.646Z,86.98
2022-11-20T19:52:34.090Z,86.84
2022-11-20T19:55:37.634Z,85.73
2022-11-20T19:58:41.170Z,84.86
2022-11-20T20:01:43.811Z,83.59
2022-11-20T20:04:47.019Z,83.71
2022-11-20T20:07:49.837Z,84.12
2022-11-20T20:10:56.749Z,85.91
2022-11-20T20:14:14.550Z,86.61
2022-11-20T20:17:17.131Z,86.16
2022-11-20T20:20:21.322Z,86.08
2022-11-20T20:23:24.027Z,85.49
2022-11-20T20:26:29.613Z,84.84
2022-11-20T20:29:32.711Z,85.29
2022-11-20T20:32:36.250Z,84.87
2022-11-20T20:35:43.390Z,84.34
2022-11-20T20:38:46.639Z,83.76
2022-11-20T20:41:51.549Z,84.22
2022-11-20T20:45:06.376Z,84.18
2022-11-20T20:48:08.843Z,84.25
2022-11-20T20:51:11.347Z,84.53
2022-11-20T20:54:13.834Z,84.22
2022-11-20T20:57:17.363Z,84.56
2022-11-20T21:00:19.942Z,83.64
2022-11-20T21:03:22.466Z,83.39
2022-11-20T21:06:25.915Z,83.68
2022-11-20T21:09:28.475Z,83.59
2022-11-20T21:12:30.869Z,83.50
2022-11-20T21:15:33.367Z,84.51
2022-11-20T21:18:36.880Z,84.00
2022-11-20T21:21:58.575Z,83.52
2022-11-20T21:25:01.027Z,83.87
2022-11-20T21:28:04.262Z,83.14
2022-11-20T21:31:13.284Z,83.19
2022-11-20T21:34:19.254Z,83.81
2022-11-20T21:37:21.800Z,83.76
2022-11-20T21:40:24.756Z,83.88
2022-11-20T21:43:28.396Z,84.25
2022-11-20T21:46:32.063Z,83.40
2022-11-20T21:49:35.272Z,83.62
2022-11-20T21:52:37.869Z,82.85
2022-11-20T21:55:40.314Z,83.71
2022-11-20T21:58:44.695Z,83.41
2022-11-20T22:01:47.870Z,83.78
2022-11-20T22:04:51.344Z,84.14
2022-11-20T22:07:56.814Z,84.46
2022-11-20T22:11:02.119Z,84.60
2022-11-20T22:14:23.327Z,84.48
2022-11-20T22:17:45.678Z,84.81
2022-11-20T22:20:48.797Z,83.83
2022-11-20T22:23:52.762Z,84.15
2022-11-20T22:26:55.924Z,84.36
2022-11-20T22:29:58.402Z,84.31
2022-11-20T22:33:00.847Z,86.65
2022-11-20T22:36:17.861Z,86.44
2022-11-20T22:39:23.181Z,86.34
2022-11-20T22:42:35.013Z,86.73
2022-11-20T22:45:38.482Z,86.46
2022-11-20T22:48:43.296Z,86.73
2022-11-20T22:51:46.901Z,86.77
2022-11-20T22:54:49.481Z,86.64
2022-11-20T22:57:51.875Z,86.40
2022-11-20T23:00:54.530Z,87.00
2022-11-20T23:03:59.635Z,87.33
2022-11-20T23:07:02.211Z,87.44
2022-11-20T23:10:06.634Z,86.40
2022-11-20T23:13:09.132Z,87.35
2022-11-20T23:16:16.818Z,88.02
2022-11-20T23:19:20.410Z,87.34
2022-11-20T23:22:22.946Z,86.94
2022-11-20T23:25:25.464Z,87.58
2022-11-20T23:28:29.380Z,86.96
2022-11-20T23:31:34.145Z,87.05
2022-11-20T23:34:37.421Z,87.70
2022-11-20T23:37:41.429Z,87.53
2022-11-20T23:40:48.543Z,87.59
2022-11-20T23:43:53.408Z,87.64
2022-11-20T23:46:56.432Z,87.72
2022-11-20T23:49:59.901Z,87.30
2022-11-20T23:53:02.391Z,87.05
2022-11-20T23:56:05.898Z,85.89
2022-11-20T23:59:08.422Z,85.98
